createdAt,value
2018-02-12T00:00:06.343Z,16.75
2018-02-12T00:02:33.750Z,15.50
2018-02-12T00:05:01.214Z,15.68
2018-02-12T00:07:28.971Z,18.12
2018-02-12T00:09:57.145Z,17.60
2018-02-12T00:12:25.341Z,20.55
2018-02-12T00:14:53.557Z,19.95
2018-02-12T00:17:21.025Z,19.80
2018-02-12T00:19:48.454Z,26.83
2018-02-12T00:22:16.652Z,25.25
2018-02-12T00:24:44.858Z,27.15
2018-02-12T00:27:12.263Z,21.80
2018-02-12T00:29:39.681Z,22.00
2018-02-12T00:32:07.101Z,22.95
2018-02-12T00:34:34.525Z,24.00
2018-02-12T00:37:01.941Z,27.75
2018-02-12T00:39:29.372Z,25.42
2018-02-12T00:41:56.842Z,30.85
2018-02-12T00:44:24.316Z,23.90
2018-02-12T00:46:51.789Z,36.88
2018-02-12T00:49:19.208Z,31.50
2018-02-12T00:51:47.402Z,36.58
2018-02-12T00:54:15.578Z,28.87
2018-02-12T00:56:43.785Z,30.55
2018-02-12T00:59:11.948Z,29.65
2018-02-12T01:01:40.141Z,34.13
2018-02-12T01:04:08.313Z,37.08
2018-02-12T01:06:36.696Z,35.58
2018-02-12T01:09:04.107Z,35.25
2018-02-12T01:11:31.585Z,34.83
2018-02-12T01:13:59.031Z,29.67
2018-02-12T01:16:27.328Z,34.25
2018-02-12T01:18:54.757Z,35.90
2018-02-12T01:21:22.198Z,37.78
2018-02-12T01:23:49.614Z,33.95
2018-02-12T01:26:17.830Z,33.40
2018-02-12T01:28:45.244Z,33.78
2018-02-12T01:31:12.659Z,34.70
2018-02-12T01:33:40.082Z,31.02
2018-02-12T01:36:07.514Z,29.33
2018-02-12T01:38:34.926Z,31.12
2018-02-12T01:41:03.134Z,30.70
2018-02-12T01:43:31.360Z,28.83
2018-02-12T01:45:58.806Z,31.70
2018-02-12T01:48:26.235Z,29.58
2018-02-12T01:50:55.158Z,24.00
2018-02-12T01:53:23.357Z,28.67
2018-02-12T01:55:50.783Z,27.02
2018-02-12T01:58:18.195Z,22.02
2018-02-12T02:00:45.662Z,23.38
2018-02-12T02:03:13.085Z,26.95
2018-02-12T02:05:41.276Z,24.25
2018-02-12T02:08:08.802Z,19.50
2018-02-12T02:10:36.216Z,27.37
2018-02-12T02:13:03.643Z,23.62
2018-02-12T02:15:31.105Z,21.33
2018-02-12T02:17:58.530Z,21.05
2018-02-12T02:20:25.949Z,18.52
2018-02-12T02:22:53.373Z,18.62
2018-02-12T02:25:21.594Z,18.73
2018-02-12T02:27:49.013Z,22.00
2018-02-12T02:30:16.427Z,20.05
2018-02-12T02:32:43.851Z,17.85
2018-02-12T02:35:11.270Z,18.92
2018-02-12T02:37:38.739Z,19.20
2018-02-12T02:40:06.156Z,17.83
2018-02-12T02:42:33.677Z,19.70
2018-02-12T02:45:01.139Z,16.95
2018-02-12T02:47:28.561Z,20.85
2018-02-12T02:49:55.974Z,22.77
2018-02-12T02:52:23.382Z,18.15
2018-02-12T02:54:50.814Z,19.27
2018-02-12T02:57:18.237Z,26.45
2018-02-12T02:59:45.649Z,24.77
2018-02-12T03:02:13.066Z,25.30
2018-02-12T03:04:41.257Z,20.05
2018-02-12T03:07:08.763Z,27.65
2018-02-12T03:09:36.187Z,22.52
2018-02-12T03:12:03.610Z,26.50
2018-02-12T03:14:31.108Z,23.80
2018-02-12T03:16:58.548Z,26.92
2018-02-12T03:19:26.021Z,24.42
2018-02-12T03:21:53.462Z,28.02
2018-02-12T03:24:21.785Z,28.58
2018-02-12T03:26:49.241Z,32.15
2018-02-12T03:29:16.657Z,33.80
2018-02-12T03:31:44.087Z,34.15
2018-02-12T03:34:11.494Z,28.67
2018-02-12T03:36:38.925Z,31.27
2018-02-12T03:39:06.345Z,35.05
2018-02-12T03:41:34.525Z,28.77
2018-02-12T03:44:03.453Z,36.47
2018-02-12T03:46:31.637Z,27.00
2018-02-12T03:48:59.845Z,30.12
2018-02-12T03:51:27.258Z,23.08
2018-02-12T03:53:54.742Z,24.90
2018-02-12T03:56:22.213Z,28.42
2018-02-12T03:58:49.622Z,22.75
2018-02-12T04:01:17.038Z,21.50
2018-02-12T04:03:44.448Z,22.50
2018-02-12T04:06:11.889Z,23.48
2018-02-12T04:08:39.310Z,22.75
2018-02-12T04:11:06.773Z,24.60
2018-02-12T04:13:34.236Z,21.23
2018-02-12T04:16:01.655Z,23.23
2018-02-12T04:18:29.074Z,27.50
2018-02-12T04:20:56.544Z,26.42
2018-02-12T04:23:23.964Z,28.87
2018-02-12T04:25:51.399Z,31.80
2018-02-12T04:28:18.809Z,27.33
2018-02-12T04:30:47.021Z,28.42
2018-02-12T04:33:14.498Z,22.37
2018-02-12T04:35:41.913Z,27.02
2018-02-12T04:38:09.334Z,25.20
2018-02-12T04:40:36.750Z,26.02
2018-02-12T04:43:04.157Z,28.20
2018-02-12T04:45:31.576Z,22.65
2018-02-12T04:47:59.005Z,22.48
2018-02-12T04:50:26.429Z,24.35
2018-02-12T04:52:53.850Z,25.85
2018-02-12T04:55:21.272Z,25.30
2018-02-12T04:57:48.693Z,21.92
2018-02-12T05:00:16.115Z,27.90
2018-02-12T05:02:44.305Z,19.52
2018-02-12T05:05:12.533Z,20.20
2018-02-12T05:07:39.964Z,21.65
2018-02-12T05:10:08.173Z,21.95
2018-02-12T05:12:35.647Z,19.85
2018-02-12T05:15:03.131Z,17.10
2018-02-12T05:17:30.587Z,19.42
2018-02-12T05:19:58.750Z,20.10
2018-02-12T05:22:26.961Z,19.45
2018-02-12T05:24:54.378Z,23.15
2018-02-12T05:27:21.851Z,21.02
2018-02-12T05:29:49.253Z,18.65
2018-02-12T05:32:16.729Z,24.55
2018-02-12T05:34:44.208Z,28.83
2018-02-12T05:37:12.361Z,25.33
2018-02-12T05:39:40.593Z,26.92
2018-02-12T05:42:08.089Z,25.25
2018-02-12T05:44:35.507Z,27.42
2018-02-12T05:47:02.926Z,26.73
2018-02-12T05:49:30.453Z,27.25
2018-02-12T05:51:57.881Z,25.98
2018-02-12T05:54:25.393Z,27.25
2018-02-12T05:56:52.792Z,28.92
2018-02-12T05:59:20.229Z,28.08
2018-02-12T06:01:47.637Z,29.60
2018-02-12T06:04:15.167Z,22.67
2018-02-12T06:06:43.356Z,27.83
2018-02-12T06:09:10.821Z,24.98
2018-02-12T06:11:38.233Z,20.08
2018-02-12T06:14:05.743Z,28.00
2018-02-12T06:16:33.168Z,19.98
2018-02-12T06:19:00.601Z,20.27
2018-02-12T06:21:28.000Z,19.73
2018-02-12T06:23:55.543Z,20.67
2018-02-12T06:26:23.013Z,17.25
2018-02-12T06:28:50.457Z,20.10
2018-02-12T06:31:17.870Z,18.85
2018-02-12T06:33:45.294Z,22.98
2018-02-12T06:36:12.720Z,22.58
2018-02-12T06:38:40.125Z,21.83
2018-02-12T06:41:08.301Z,19.65
2018-02-12T06:43:35.713Z,19.00
2018-02-12T06:46:03.133Z,19.35
2018-02-12T06:48:30.600Z,18.77
2018-02-12T06:50:58.764Z,19.48
2018-02-12T06:53:26.947Z,19.20
2018-02-12T06:55:55.166Z,19.62
2018-02-12T06:58:22.630Z,23.38
2018-02-12T07:00:50.046Z,25.83
2018-02-12T07:03:17.464Z,21.27
2018-02-12T07:05:44.876Z,22.62
2018-02-12T07:08:12.332Z,26.35
2018-02-12T07:10:39.746Z,23.90
2018-02-12T07:13:07.963Z,29.30
2018-02-12T07:15:35.369Z,30.48
2018-02-12T07:18:02.895Z,26.02
2018-02-12T07:20:31.063Z,23.40
2018-02-12T07:22:59.234Z,33.65
2018-02-12T07:25:27.477Z,23.75
2018-02-12T07:27:54.889Z,28.85
2018-02-12T07:30:23.207Z,24.75
2018-02-12T07:32:50.593Z,30.52
2018-02-12T07:35:18.048Z,22.42
2018-02-12T07:37:45.451Z,20.37
2018-02-12T07:40:13.038Z,19.35
2018-02-12T07:42:40.489Z,30.80
2018-02-12T07:45:07.917Z,27.08
2018-02-12T07:47:35.341Z,19.17
2018-02-12T07:50:02.751Z,27.60
2018-02-12T07:52:30.226Z,44.50
2018-02-12T07:54:57.616Z,23.27
2018-02-12T07:57:25.274Z,27.42
2018-02-12T07:59:52.680Z,28.12
2018-02-12T08:02:20.222Z,20.80
2018-02-12T08:04:47.642Z,31.20
2018-02-12T08:07:15.863Z,27.37
2018-02-12T08:09:43.269Z,27.25
2018-02-12T08:12:10.692Z,25.88
2018-02-12T08:14:38.104Z,28.50
2018-02-12T08:17:06.349Z,28.85
2018-02-12T08:19:33.822Z,30.58
2018-02-12T08:22:01.299Z,31.02
2018-02-12T08:24:28.703Z,23.20
2018-02-12T08:26:56.222Z,26.37
2018-02-12T08:29:23.646Z,26.42
2018-02-12T08:31:51.076Z,29.73
2018-02-12T08:34:18.481Z,33.05
2018-02-12T08:36:46.001Z,36.78
2018-02-12T08:39:14.213Z,26.58
2018-02-12T08:41:41.653Z,30.08
2018-02-12T08:44:09.119Z,27.52
2018-02-12T08:46:36.582Z,27.02
2018-02-12T08:49:04.001Z,26.30
2018-02-12T08:51:31.422Z,28.65
2018-02-12T08:53:59.008Z,24.60
2018-02-12T08:56:26.416Z,25.92
2018-02-12T08:58:53.850Z,34.03
2018-02-12T09:01:21.308Z,24.55
2018-02-12T09:03:48.737Z,28.80
2018-02-12T09:06:17.004Z,21.73
2018-02-12T09:08:44.396Z,24.98
2018-02-12T09:11:12.581Z,17.40
2018-02-12T09:13:40.774Z,22.95
2018-02-12T09:16:09.040Z,36.38
2018-02-12T09:18:36.473Z,23.58
2018-02-12T09:21:03.921Z,27.62
2018-02-12T09:23:31.400Z,26.90
2018-02-12T09:25:58.868Z,28.55
2018-02-12T09:28:26.357Z,25.20
2018-02-12T09:30:53.802Z,25.65
2018-02-12T09:33:21.273Z,19.92
2018-02-12T09:35:48.702Z,20.73
2018-02-12T09:38:16.109Z,20.48
2018-02-12T09:40:43.518Z,20.25
2018-02-12T09:43:11.139Z,16.92
2018-02-12T09:45:39.298Z,21.60
2018-02-12T09:48:07.518Z,17.60
2018-02-12T09:50:34.988Z,19.60
2018-02-12T09:53:02.418Z,17.08
2018-02-12T09:55:29.832Z,23.25
2018-02-12T09:57:57.261Z,13.75
2018-02-12T10:00:25.457Z,15.52
2018-02-12T10:02:52.917Z,21.37
2018-02-12T10:05:21.349Z,15.23
2018-02-12T10:07:48.733Z,17.33
2018-02-12T10:10:16.166Z,24.10
2018-02-12T10:12:43.610Z,18.20
2018-02-12T10:15:11.833Z,19.50
2018-02-12T10:17:39.248Z,15.75
2018-02-12T10:20:07.433Z,15.55
2018-02-12T10:22:35.037Z,20.55
2018-02-12T10:25:03.226Z,17.98
2018-02-12T10:27:31.485Z,17.73
2018-02-12T10:29:59.715Z,14.20
2018-02-12T10:32:27.886Z,16.98
2018-02-12T10:34:56.053Z,19.60
2018-02-12T10:37:24.233Z,18.35
2018-02-12T10:39:51.781Z,21.02
2018-02-12T10:42:19.201Z,28.38
2018-02-12T10:44:46.633Z,18.92
2018-02-12T10:47:14.056Z,22.08
2018-02-12T10:49:41.472Z,18.75
2018-02-12T10:52:09.698Z,18.48
2018-02-12T10:54:37.148Z,23.08
2018-02-12T10:57:04.634Z,17.83
2018-02-12T10:59:32.062Z,20.88
2018-02-12T11:01:59.570Z,15.77
2018-02-12T11:04:27.043Z,12.90
2018-02-12T11:06:54.517Z,12.27
2018-02-12T11:09:21.994Z,16.35
2018-02-12T11:11:49.475Z,12.43
2018-02-12T11:14:16.891Z,12.68
2018-02-12T11:16:45.078Z,9.25
2018-02-12T11:19:13.262Z,14.43
2018-02-12T11:21:41.507Z,14.55
2018-02-12T11:24:08.898Z,8.95
2018-02-12T11:26:36.313Z,11.63
2018-02-12T11:29:03.742Z,13.57
2018-02-12T11:31:31.303Z,12.65
2018-02-12T11:33:58.830Z,17.35
2018-02-12T11:36:26.245Z,14.60
2018-02-12T11:38:54.550Z,10.18
2018-02-12T11:41:22.131Z,13.00
2018-02-12T11:43:49.713Z,15.67
2018-02-12T11:46:17.142Z,7.27
2018-02-12T11:48:45.317Z,7.80
2018-02-12T11:51:12.717Z,8.40
2018-02-12T11:53:40.888Z,9.40
2018-02-12T11:56:08.401Z,6.00
2018-02-12T11:58:35.825Z,8.57
2018-02-12T12:01:03.230Z,6.57
2018-02-12T12:03:30.659Z,7.40
2018-02-12T12:05:58.176Z,7.30
2018-02-12T12:08:26.356Z,7.43
2018-02-12T12:10:53.766Z,7.63
2018-02-12T12:13:21.216Z,5.83
2018-02-12T12:15:48.629Z,8.17
2018-02-12T12:18:16.836Z,8.10
2018-02-12T12:20:45.007Z,11.07
2018-02-12T12:23:13.223Z,14.20
2018-02-12T12:25:41.408Z,12.27
2018-02-12T12:28:09.555Z,13.43
2018-02-12T12:30:37.088Z,13.60
2018-02-12T12:33:04.647Z,17.20
2018-02-12T12:35:32.117Z,8.00
2018-02-12T12:37:59.574Z,12.30
2018-02-12T12:40:27.051Z,14.27
2018-02-12T12:42:54.527Z,12.17
2018-02-12T12:45:21.949Z,12.50
2018-02-12T12:47:50.226Z,11.10
2018-02-12T12:50:17.675Z,15.70
2018-02-12T12:52:45.074Z,15.47
2018-02-12T12:55:13.250Z,21.63
2018-02-12T12:57:41.477Z,14.53
2018-02-12T13:00:09.637Z,16.27
2018-02-12T13:02:37.846Z,15.47
2018-02-12T13:05:05.266Z,15.40
2018-02-12T13:07:32.682Z,20.30
2018-02-12T13:10:00.155Z,18.07
2018-02-12T13:12:28.313Z,14.33
2018-02-12T13:14:56.531Z,23.33
2018-02-12T13:17:23.945Z,12.90
2018-02-12T13:19:51.427Z,21.37
2018-02-12T13:22:18.816Z,21.63
2018-02-12T13:24:46.241Z,17.80
2018-02-12T13:27:13.753Z,20.43
2018-02-12T13:29:41.166Z,27.13
2018-02-12T13:32:08.704Z,14.47
2018-02-12T13:34:36.885Z,19.93
2018-02-12T13:37:04.362Z,13.90
2018-02-12T13:39:31.781Z,12.10
2018-02-12T13:41:59.403Z,18.03
2018-02-12T13:44:27.792Z,14.67
2018-02-12T13:46:55.949Z,20.80
2018-02-12T13:49:24.163Z,14.90
2018-02-12T13:51:52.349Z,12.20
2018-02-12T13:54:19.758Z,11.80
2018-02-12T13:56:47.277Z,15.43
2018-02-12T13:59:14.755Z,13.40
2018-02-12T14:01:42.910Z,15.20
2018-02-12T14:04:11.119Z,12.67
2018-02-12T14:06:38.595Z,10.77
2018-02-12T14:09:06.064Z,13.90
2018-02-12T14:11:34.225Z,14.00
2018-02-12T14:14:02.413Z,11.17
2018-02-12T14:16:29.884Z,17.53
2018-02-12T14:18:57.301Z,13.80
2018-02-12T14:21:24.738Z,18.60
2018-02-12T14:23:52.159Z,9.80
2018-02-12T14:26:21.133Z,13.37
2018-02-12T14:28:48.570Z,10.23
2018-02-12T14:31:16.045Z,11.30
2018-02-12T14:33:44.304Z,14.23
2018-02-12T14:36:11.723Z,11.27
2018-02-12T14:38:39.126Z,19.87
2018-02-12T14:41:06.642Z,25.20
2018-02-12T14:43:34.050Z,13.93
2018-02-12T14:46:01.581Z,13.30
2018-02-12T14:48:29.729Z,7.80
2018-02-12T14:50:57.950Z,19.43
2018-02-12T14:53:25.471Z,17.00
2018-02-12T14:55:52.897Z,19.00
2018-02-12T14:58:20.327Z,18.43
2018-02-12T15:00:48.545Z,10.87
2018-02-12T15:03:16.001Z,11.87
2018-02-12T15:05:43.415Z,7.87
2018-02-12T15:08:10.890Z,5.35
2018-02-12T15:10:38.273Z,8.60
2018-02-12T15:13:06.465Z,4.32
2018-02-12T15:15:34.649Z,3.85
2018-02-12T15:18:02.874Z,4.32
2018-02-12T15:20:30.348Z,7.25
2018-02-12T15:22:57.759Z,11.60
2018-02-12T15:25:25.181Z,9.57
2018-02-12T15:27:52.657Z,8.88
2018-02-12T15:30:20.126Z,7.30
2018-02-12T15:32:47.551Z,5.68
2018-02-12T15:35:15.743Z,13.57
2018-02-12T15:37:43.918Z,11.30
2018-02-12T15:40:12.156Z,16.55
2018-02-12T15:42:39.552Z,5.85
2018-02-12T15:45:07.002Z,9.73
2018-02-12T15:47:34.389Z,13.68
2018-02-12T15:50:01.917Z,10.52
2018-02-12T15:52:29.321Z,10.55
2018-02-12T15:54:56.957Z,7.85
2018-02-12T15:57:24.433Z,16.55
2018-02-12T15:59:51.822Z,13.40
2018-02-12T16:02:19.238Z,10.77
2018-02-12T16:04:47.414Z,13.30
2018-02-12T16:07:15.629Z,9.35
2018-02-12T16:09:43.800Z,13.52
2018-02-12T16:12:11.393Z,14.40
2018-02-12T16:14:38.854Z,9.85
2018-02-12T16:17:06.260Z,11.95
2018-02-12T16:19:33.677Z,14.35
2018-02-12T16:22:01.140Z,12.15
2018-02-12T16:24:29.321Z,10.43
2018-02-12T16:26:57.530Z,10.75
2018-02-12T16:29:24.946Z,6.43
2018-02-12T16:31:52.479Z,11.48
2018-02-12T16:34:19.909Z,7.90
2018-02-12T16:36:48.090Z,8.27
2018-02-12T16:39:16.289Z,4.68
2018-02-12T16:41:44.466Z,7.57
2018-02-12T16:44:12.787Z,5.50
2018-02-12T16:46:40.991Z,7.90
2018-02-12T16:49:08.438Z,8.68
2018-02-12T16:51:35.877Z,7.05
2018-02-12T16:54:04.077Z,10.68
2018-02-12T16:56:32.247Z,7.12
2018-02-12T16:59:00.469Z,8.57
2018-02-12T17:01:27.871Z,7.72
2018-02-12T17:03:55.281Z,5.12
2018-02-12T17:06:23.471Z,9.52
2018-02-12T17:08:50.892Z,6.85
2018-02-12T17:11:18.428Z,8.35
2018-02-12T17:13:46.583Z,10.98
2018-02-12T17:16:14.753Z,10.05
2018-02-12T17:18:42.185Z,5.75
2018-02-12T17:21:09.593Z,6.80
2018-02-12T17:23:37.789Z,6.20
2018-02-12T17:26:05.195Z,11.45
2018-02-12T17:28:32.606Z,7.53
2018-02-12T17:31:00.023Z,4.45
2018-02-12T17:33:27.548Z,7.25
2018-02-12T17:35:54.950Z,5.90
2018-02-12T17:38:22.365Z,7.68
2018-02-12T17:40:49.794Z,9.55
2018-02-12T17:43:17.200Z,9.10
2018-02-12T17:45:44.615Z,9.10
2018-02-12T17:48:12.781Z,13.10
2018-02-12T17:50:40.969Z,6.18
2018-02-12T17:53:09.142Z,10.48
2018-02-12T17:55:36.549Z,12.48
2018-02-12T17:58:03.958Z,8.13
2018-02-12T18:00:31.497Z,11.80
2018-02-12T18:02:59.664Z,9.73
2018-02-12T18:05:27.855Z,9.90
2018-02-12T18:07:55.262Z,14.73
2018-02-12T18:10:22.690Z,10.38
2018-02-12T18:12:50.129Z,13.05
2018-02-12T18:15:17.541Z,11.18
2018-02-12T18:17:44.949Z,11.68
2018-02-12T18:20:12.371Z,10.52
2018-02-12T18:22:39.771Z,12.15
2018-02-12T18:25:07.197Z,8.60
2018-02-12T18:27:34.675Z,9.40
2018-02-12T18:30:02.086Z,17.02
2018-02-12T18:32:29.501Z,16.00
2018-02-12T18:34:56.922Z,14.70
2018-02-12T18:37:24.373Z,14.55
2018-02-12T18:39:51.808Z,11.23
2018-02-12T18:42:19.298Z,15.48
2018-02-12T18:44:46.702Z,14.25
2018-02-12T18:47:14.104Z,14.80
2018-02-12T18:49:41.512Z,14.20
2018-02-12T18:52:08.918Z,10.52
2018-02-12T18:54:37.103Z,13.93
2018-02-12T18:57:04.501Z,13.27
2018-02-12T18:59:31.978Z,12.60
2018-02-12T19:01:59.463Z,13.57
2018-02-12T19:04:26.977Z,16.15
2018-02-12T19:06:54.382Z,17.33
2018-02-12T19:09:21.811Z,15.45
2018-02-12T19:11:49.344Z,20.25
2018-02-12T19:14:16.782Z,22.98
2018-02-12T19:16:44.188Z,17.73
2018-02-12T19:19:11.625Z,17.27
2018-02-12T19:21:39.081Z,21.02
2018-02-12T19:24:06.506Z,21.27
2018-02-12T19:26:33.928Z,17.15
2018-02-12T19:29:01.355Z,24.35
2018-02-12T19:31:28.766Z,17.95
2018-02-12T19:33:56.270Z,21.73
2018-02-12T19:36:23.693Z,20.92
2018-02-12T19:38:51.136Z,23.45
2018-02-12T19:41:18.646Z,19.45
2018-02-12T19:43:46.058Z,16.90
2018-02-12T19:46:14.229Z,15.07
2018-02-12T19:48:41.664Z,14.18
2018-02-12T19:51:09.077Z,21.27
2018-02-12T19:53:36.494Z,19.77
2018-02-12T19:56:03.962Z,22.75
2018-02-12T19:58:31.377Z,14.05
2018-02-12T20:00:58.806Z,19.12
2018-02-12T20:03:26.274Z,30.83
2018-02-12T20:05:53.694Z,22.05
2018-02-12T20:08:21.219Z,27.20
2018-02-12T20:10:48.629Z,20.80
2018-02-12T20:13:16.142Z,17.83
2018-02-12T20:15:43.566Z,24.35
2018-02-12T20:18:11.098Z,19.65
2018-02-12T20:20:38.510Z,23.08
2018-02-12T20:23:05.922Z,21.08
2018-02-12T20:25:33.333Z,24.90
2018-02-12T20:28:00.745Z,18.98
2018-02-12T20:30:28.242Z,22.87
2018-02-12T20:32:55.645Z,26.12
2018-02-12T20:35:23.177Z,19.08
2018-02-12T20:37:50.610Z,24.27
2018-02-12T20:40:18.826Z,27.30
2018-02-12T20:42:46.234Z,22.87
2018-02-12T20:45:13.657Z,21.35
2018-02-12T20:47:41.070Z,23.48
2018-02-12T20:50:08.505Z,28.00
2018-02-12T20:52:35.918Z,28.70
2018-02-12T20:55:03.342Z,26.98
2018-02-12T20:57:30.803Z,21.45
2018-02-12T20:59:58.228Z,27.92
2018-02-12T21:02:25.825Z,22.77
2018-02-12T21:04:53.992Z,28.52
2018-02-12T21:07:22.212Z,28.75
2018-02-12T21:09:49.635Z,26.67
2018-02-12T21:12:17.068Z,23.08
2018-02-12T21:14:44.482Z,30.88
2018-02-12T21:17:12.701Z,31.65
2018-02-12T21:19:40.117Z,28.42
2018-02-12T21:22:07.699Z,41.63
2018-02-12T21:24:35.060Z,36.63
2018-02-12T21:27:02.473Z,31.20
2018-02-12T21:29:29.891Z,26.83
2018-02-12T21:31:57.306Z,25.50
2018-02-12T21:34:24.719Z,27.25
2018-02-12T21:36:52.143Z,33.58
2018-02-12T21:39:19.684Z,30.52
2018-02-12T21:41:47.188Z,31.60
2018-02-12T21:44:14.593Z,30.95
2018-02-12T21:46:42.015Z,28.77
2018-02-12T21:49:09.444Z,27.92
2018-02-12T21:51:36.885Z,30.88
2018-02-12T21:54:04.305Z,26.08
2018-02-12T21:56:32.518Z,30.62
2018-02-12T21:58:59.938Z,32.75
2018-02-12T22:01:28.121Z,37.10
2018-02-12T22:03:56.366Z,31.98
2018-02-12T22:06:23.781Z,27.55
2018-02-12T22:08:51.214Z,27.08
2018-02-12T22:11:18.621Z,31.27
2018-02-12T22:13:46.050Z,28.35
2018-02-12T22:16:13.469Z,36.83
2018-02-12T22:18:41.661Z,29.40
2018-02-12T22:21:09.858Z,29.10
2018-02-12T22:23:38.036Z,32.03
2018-02-12T22:26:06.214Z,31.40
2018-02-12T22:28:34.424Z,36.83
2018-02-12T22:31:02.574Z,26.90
2018-02-12T22:33:30.090Z,40.83
2018-02-12T22:35:57.564Z,36.13
2018-02-12T22:38:25.208Z,40.17
2018-02-12T22:40:53.409Z,34.42
2018-02-12T22:43:20.882Z,36.25
2018-02-12T22:45:48.988Z,45.75
2018-02-12T22:48:16.421Z,36.17
2018-02-12T22:50:43.861Z,46.22
2018-02-12T22:53:11.281Z,36.90
2018-02-12T22:55:38.706Z,37.35
2018-02-12T22:58:06.922Z,37.17
2018-02-12T23:00:34.342Z,40.90
2018-02-12T23:03:01.765Z,43.45
2018-02-12T23:05:29.231Z,40.40
2018-02-12T23:07:56.694Z,34.33
2018-02-12T23:10:24.127Z,36.42
2018-02-12T23:12:51.584Z,35.53
2018-02-12T23:15:24.747Z,38.45
2018-02-12T23:17:52.201Z,40.42
2018-02-12T23:20:19.635Z,38.95
2018-02-12T23:22:47.162Z,36.10
2018-02-12T23:25:14.609Z,45.00
2018-02-12T23:27:42.183Z,48.80
2018-02-12T23:30:09.661Z,37.17
2018-02-12T23:32:37.097Z,39.45
2018-02-12T23:35:05.275Z,38.45
2018-02-12T23:37:33.470Z,40.67
2018-02-12T23:40:01.646Z,47.60
2018-02-12T23:42:29.053Z,44.80
2018-02-12T23:44:56.461Z,44.47
2018-02-12T23:47:23.886Z,39.25
2018-02-12T23:49:51.317Z,41.55
2018-02-12T23:52:19.554Z,47.30
2018-02-12T23:54:46.982Z,41.00
2018-02-12T23:57:14.474Z,39.95
2018-02-12T23:59:41.951Z,39.65
